Time;durP1;ratioP1;P1;durP2;ratioP2;P2;SDS_P1;SDS_P2;PMS_P1;PMS_P2;Temp;Humidity;BMP_temperature;BMP_pressure;BME280_temperature;BME280_humidity;BME280_pressure;Samples;Min_cycle;Max_cycle;Signal;HPM_P1;HPM_P2
2024/01/20 00:02:16;;;;;;;67.65;20.42;;;;;;;0.06;100.00;102741.34;5278788;28;20130;-72
2024/01/20 00:04:46;;;;;;;82.32;21.33;;;;;;;0.08;100.00;102744.78;5277347;28;20102;-72
2024/01/20 00:07:17;;;;;;;73.95;21.40;;;;;;;0.04;100.00;102740.50;5274836;28;20058;-72
2024/01/20 00:09:47;;;;;;;75.35;21.48;;;;;;;0.06;100.00;102756.31;5281744;28;20488;-72
2024/01/20 00:12:18;;;;;;;66.95;20.27;;;;;;;0.04;100.00;102752.84;5278591;28;20047;-72
2024/01/20 00:14:48;;;;;;;72.95;22.10;;;;;;;-0.04;100.00;102746.06;5277224;28;20116;-72
2024/01/20 00:17:19;;;;;;;82.20;20.38;;;;;;;-0.06;100.00;102747.88;5270985;28;20381;-72
2024/01/20 00:19:49;;;;;;;78.90;21.10;;;;;;;-0.09;100.00;102745.34;5281177;28;20034;-72
2024/01/20 00:22:20;;;;;;;83.28;22.63;;;;;;;-0.12;100.00;102753.38;5274496;28;20031;-72
2024/01/20 00:24:50;;;;;;;75.20;21.00;;;;;;;-0.09;100.00;102745.34;5280819;28;20036;-71
2024/01/20 00:27:21;;;;;;;74.13;21.85;;;;;;;-0.20;100.00;102741.31;5273972;27;20031;-72
2024/01/20 00:29:52;;;;;;;73.20;20.40;;;;;;;-0.19;100.00;102753.63;5273680;28;20392;-72
2024/01/20 00:32:23;;;;;;;85.93;21.30;;;;;;;-0.14;100.00;102749.06;5277015;28;20074;-72
2024/01/20 00:34:53;;;;;;;78.40;21.42;;;;;;;-0.15;100.00;102747.31;5272915;28;20023;-71
2024/01/20 00:37:23;;;;;;;75.97;20.23;;;;;;;-0.17;100.00;102749.16;5277610;28;20035;-72
2024/01/20 00:39:54;;;;;;;78.32;20.23;;;;;;;-0.13;100.00;102743.72;5279264;28;20024;-72
2024/01/20 00:42:24;;;;;;;71.60;19.52;;;;;;;-0.19;100.00;102743.09;5272720;28;20031;-72
2024/01/20 00:44:55;;;;;;;73.18;21.10;;;;;;;-0.11;100.00;102748.94;5273921;28;20397;-71
2024/01/20 00:47:25;;;;;;;76.70;22.48;;;;;;;-0.04;100.00;102742.56;5277434;28;20035;-71
2024/01/20 00:49:56;;;;;;;70.47;21.23;;;;;;;-0.13;100.00;102740.22;5276534;28;20023;-71
2024/01/20 00:52:26;;;;;;;80.05;21.98;;;;;;;-0.22;100.00;102748.44;5277431;28;20028;-72
2024/01/20 00:54:57;;;;;;;71.80;20.52;;;;;;;-0.36;100.00;102744.47;5280337;28;20020;-71
2024/01/20 00:57:28;;;;;;;75.03;20.92;;;;;;;-0.21;100.00;102739.63;5273632;28;20153;-72
2024/01/20 00:59:58;;;;;;;73.72;20.88;;;;;;;-0.20;100.00;102736.06;5276377;28;20031;-72
2024/01/20 01:02:29;;;;;;;71.57;20.20;;;;;;;-0.20;100.00;102736.06;5276561;28;20042;-72
2024/01/20 01:04:59;;;;;;;81.38;20.67;;;;;;;-0.24;100.00;102735.31;5275739;28;20028;-71
2024/01/20 01:07:29;;;;;;;79.55;19.73;;;;;;;-0.29;100.00;102745.16;5276841;28;20027;-72
2024/01/20 01:10:00;;;;;;;69.45;20.33;;;;;;;-0.22;100.00;102751.94;5277145;27;20023;-72
2024/01/20 01:12:31;;;;;;;80.32;20.98;;;;;;;-0.19;100.00;102741.31;5273690;28;20050;-71
2024/01/20 01:15:01;;;;;;;73.65;20.58;;;;;;;-0.14;100.00;102749.06;5275606;28;20027;-72
2024/01/20 01:17:32;;;;;;;73.45;20.50;;;;;;;-0.13;100.00;102751.66;5277178;28;20149;-71
2024/01/20 01:20:04;;;;;;;74.55;19.92;;;;;;;-0.08;100.00;102754.13;5278409;28;20027;-71
2024/01/20 01:22:34;;;;;;;76.43;20.85;;;;;;;-0.07;100.00;102758.50;5275097;28;20049;-72
2024/01/20 01:25:05;;;;;;;79.63;22.83;;;;;;;-0.15;100.00;102752.59;5276630;28;20023;-72
2024/01/20 01:27:36;;;;;;;77.90;21.80;;;;;;;-0.16;100.00;102750.88;5272862;28;20081;-72
2024/01/20 01:30:07;;;;;;;73.47;20.48;;;;;;;-0.14;100.00;102756.97;5274036;28;20504;-72
2024/01/20 01:32:38;;;;;;;80.60;23.23;;;;;;;-0.11;100.00;102760.34;5271282;28;20039;-72
2024/01/20 01:35:08;;;;;;;80.57;23.60;;;;;;;-0.14;100.00;102763.13;5272924;28;20472;-72
2024/01/20 01:37:39;;;;;;;81.57;22.05;;;;;;;-0.25;100.00;102757.34;5274233;28;20027;-71
2024/01/20 01:40:10;;;;;;;81.75;22.83;;;;;;;-0.18;100.00;102758.00;5269577;28;20039;-72
2024/01/20 01:42:40;;;;;;;73.85;22.50;;;;;;;-0.09;100.00;102763.81;5273937;28;20031;-71
2024/01/20 01:45:11;;;;;;;75.07;21.52;;;;;;;-0.10;100.00;102758.56;5265722;28;20015;-72
2024/01/20 01:47:41;;;;;;;81.97;21.63;;;;;;;-0.07;100.00;102766.41;5276939;28;20035;-71
2024/01/20 01:50:12;;;;;;;70.75;22.55;;;;;;;-0.14;100.00;102768.38;5269495;27;20028;-71
2024/01/20 01:52:42;;;;;;;76.97;22.67;;;;;;;-0.16;100.00;102771.97;5276501;28;20035;-71
2024/01/20 01:55:14;;;;;;;77.53;23.70;;;;;;;-0.18;100.00;102779.09;5271773;28;20103;-72
2024/01/20 01:57:45;;;;;;;84.57;23.75;;;;;;;-0.17;100.00;102778.16;5277098;28;20034;-71
2024/01/20 02:00:16;;;;;;;76.22;22.48;;;;;;;-0.17;100.00;102772.91;5272586;28;20031;-72
2024/01/20 02:02:46;;;;;;;78.43;22.50;;;;;;;-0.18;100.00;102776.47;5267936;28;20020;-71
2024/01/20 02:05:17;;;;;;;73.35;21.92;;;;;;;-0.27;100.00;102789.00;5272159;27;20034;-71
2024/01/20 02:07:49;;;;;;;73.82;21.15;;;;;;;-0.26;100.00;102784.59;5271464;28;20023;-72
2024/01/20 02:10:21;;;;;;;85.90;21.92;;;;;;;-0.41;100.00;102787.72;5275394;28;20055;-72
2024/01/20 02:12:51;;;;;;;79.75;22.73;;;;;;;-0.27;100.00;102789.00;5272353;28;20102;-71
2024/01/20 02:15:23;;;;;;;78.95;22.80;;;;;;;-0.22;100.00;102788.00;5270434;28;20130;-71
2024/01/20 02:17:55;;;;;;;84.22;22.17;;;;;;;-0.16;100.00;102793.94;5275161;28;20022;-72
2024/01/20 02:20:26;;;;;;;83.15;21.10;;;;;;;-0.19;100.00;102787.94;5274017;28;20032;-71
2024/01/20 02:22:56;;;;;;;79.78;23.35;;;;;;;-0.12;100.00;102790.31;5274796;28;20469;-71
2024/01/20 02:25:27;;;;;;;79.88;22.13;;;;;;;-0.08;100.00;102796.34;5267633;28;20032;-72
2024/01/20 02:27:57;;;;;;;79.28;20.73;;;;;;;-0.17;100.00;102794.00;5271511;28;20020;-72
2024/01/20 02:30:28;;;;;;;85.03;23.35;;;;;;;-0.13;100.00;102798.28;5269937;28;20096;-71
2024/01/20 02:32:58;;;;;;;87.47;23.17;;;;;;;-0.07;100.00;102793.66;5269411;28;20021;-72
2024/01/20 02:35:29;;;;;;;70.97;20.30;;;;;;;-0.08;100.00;102797.22;5269281;28;20107;-71
2024/01/20 02:38:01;;;;;;;81.95;23.42;;;;;;;-0.19;100.00;102794.06;5272631;28;20050;-71
2024/01/20 02:40:31;;;;;;;86.63;23.13;;;;;;;-0.15;100.00;102800.06;5269592;28;20032;-71
2024/01/20 02:43:02;;;;;;;80.25;22.63;;;;;;;-0.10;100.00;102803.44;5275301;28;20022;-72
2024/01/20 02:45:32;;;;;;;76.97;22.92;;;;;;;-0.10;100.00;102799.03;5274265;28;20536;-72
2024/01/20 02:48:03;;;;;;;86.03;24.15;;;;;;;-0.09;100.00;102798.13;5268471;28;20023;-72
2024/01/20 02:50:34;;;;;;;81.07;22.05;;;;;;;-0.28;100.00;102792.56;5269558;28;20108;-72
2024/01/20 02:53:05;;;;;;;80.95;22.33;;;;;;;-0.28;100.00;102789.06;5272022;28;20023;-72
2024/01/20 02:55:35;;;;;;;87.30;22.00;;;;;;;-0.22;100.00;102788.88;5274924;28;20031;-72
2024/01/20 02:58:07;;;;;;;101.68;23.90;;;;;;;-0.20;100.00;102781.78;5277321;28;20030;-72
2024/01/20 03:00:37;;;;;;;82.50;22.75;;;;;;;-0.17;100.00;102789.59;5268752;28;20024;-71
2024/01/20 03:03:09;;;;;;;76.25;23.27;;;;;;;-0.23;100.00;102787.16;5275890;28;20038;-72
2024/01/20 03:05:40;;;;;;;83.32;23.48;;;;;;;-0.22;100.00;102788.00;5275629;28;20476;-72
2024/01/20 03:08:11;;;;;;;78.13;23.17;;;;;;;-0.23;100.00;102788.94;5279063;28;20031;-72
2024/01/20 03:10:42;;;;;;;90.57;23.33;;;;;;;-0.28;100.00;102795.22;5278417;28;20032;-71
2024/01/20 03:13:13;;;;;;;84.72;22.35;;;;;;;-0.20;100.00;102789.72;5273535;28;20043;-72
2024/01/20 03:15:43;;;;;;;80.43;22.98;;;;;;;-0.17;100.00;102791.38;5272662;28;20469;-72
2024/01/20 03:18:14;;;;;;;80.05;22.13;;;;;;;-0.13;100.00;102795.63;5278222;28;20016;-72
2024/01/20 03:20:45;;;;;;;84.28;22.33;;;;;;;-0.18;100.00;102800.19;5278185;28;20031;-71
2024/01/20 03:23:16;;;;;;;91.90;24.30;;;;;;;-0.24;100.00;102787.22;5275286;27;20455;-71
2024/01/20 03:25:47;;;;;;;82.28;23.98;;;;;;;-0.20;100.00;102791.44;5278233;28;20019;-71
2024/01/20 03:28:17;;;;;;;86.13;25.77;;;;;;;-0.21;100.00;102795.00;5274780;28;21243;-71
2024/01/20 03:30:48;;;;;;;83.47;23.88;;;;;;;-0.24;100.00;102788.06;5275786;28;20016;-71
2024/01/20 03:33:19;;;;;;;77.95;23.35;;;;;;;-0.23;100.00;102796.84;5272234;28;20115;-71
2024/01/20 03:35:49;;;;;;;83.03;23.83;;;;;;;-0.26;100.00;102800.44;5277825;28;20023;-71
2024/01/20 03:38:22;;;;;;;82.35;23.42;;;;;;;-0.30;100.00;102804.09;5276594;28;20027;-71
2024/01/20 03:40:53;;;;;;;89.25;22.90;;;;;;;-0.27;100.00;102812.75;5271036;28;20401;-71
2024/01/20 03:43:23;;;;;;;80.75;23.23;;;;;;;-0.33;100.00;102802.41;5276358;28;20047;-71
2024/01/20 03:45:55;;;;;;;80.45;24.60;;;;;;;-0.32;100.00;102800.63;5273409;28;20079;-71
2024/01/20 03:48:26;;;;;;;79.38;23.58;;;;;;;-0.41;100.00;102812.31;5275945;28;20081;-71
2024/01/20 03:50:56;;;;;;;80.53;24.08;;;;;;;-0.38;100.00;102817.50;5270964;28;20019;-71
2024/01/20 03:53:27;;;;;;;91.32;25.67;;;;;;;-0.29;100.00;102819.00;5272156;28;20028;-71
2024/01/20 03:55:57;;;;;;;85.30;24.58;;;;;;;-0.29;100.00;102814.59;5276476;28;20020;-71
2024/01/20 03:58:28;;;;;;;86.25;23.98;;;;;;;-0.27;100.00;102804.84;5274535;28;20500;-71
2024/01/20 04:00:58;;;;;;;94.88;27.40;;;;;;;-0.27;100.00;102809.25;5275191;28;20036;-71
2024/01/20 04:03:29;;;;;;;89.72;26.40;;;;;;;-0.34;100.00;102813.00;5270058;28;20027;-71
2024/01/20 04:05:59;;;;;;;88.78;23.98;;;;;;;-0.38;100.00;102819.28;5276844;27;20411;-71
2024/01/20 04:08:29;;;;;;;87.40;26.20;;;;;;;-0.48;100.00;102818.72;5272345;28;20028;-71
2024/01/20 04:11:00;;;;;;;95.93;26.25;;;;;;;-0.40;100.00;102814.06;5270527;28;20045;-71
2024/01/20 04:13:30;;;;;;;90.40;27.13;;;;;;;-0.43;100.00;102816.78;5274792;28;20028;-71
2024/01/20 04:16:01;;;;;;;98.50;25.60;;;;;;;-0.40;100.00;102815.81;5275234;28;20015;-71
2024/01/20 04:18:31;;;;;;;99.75;25.30;;;;;;;-0.36;100.00;102812.19;5270063;28;20695;-71
2024/01/20 04:21:02;;;;;;;97.47;28.75;;;;;;;-0.41;100.00;102820.22;5277440;28;20037;-71
2024/01/20 04:23:32;;;;;;;99.07;26.30;;;;;;;-0.49;100.00;102827.53;5274439;28;20031;-71
2024/01/20 04:26:03;;;;;;;106.05;26.80;;;;;;;-0.57;100.00;102822.47;5276922;28;20629;-71
2024/01/20 04:28:33;;;;;;;91.63;25.80;;;;;;;-0.53;100.00;102825.91;5274294;28;20024;-70
2024/01/20 04:31:04;;;;;;;89.85;24.42;;;;;;;-0.46;100.00;102830.06;5274721;28;20831;-71
2024/01/20 04:33:36;;;;;;;78.07;23.83;;;;;;;-0.56;100.00;102825.97;5272371;28;20114;-71
2024/01/20 04:36:07;;;;;;;75.80;22.63;;;;;;;-0.56;100.00;102831.25;5276043;28;20022;-71
2024/01/20 04:38:39;;;;;;;74.90;21.90;;;;;;;-0.51;100.00;102824.06;5273361;28;20119;-71
2024/01/20 04:41:09;;;;;;;78.00;23.88;;;;;;;-0.55;100.00;102823.31;5273532;28;20059;-71
2024/01/20 04:43:40;;;;;;;76.82;22.48;;;;;;;-0.60;100.00;102824.38;5271202;28;20063;-71
2024/01/20 04:46:11;;;;;;;79.07;24.40;;;;;;;-0.50;100.00;102823.19;5272694;28;20028;-71
2024/01/20 04:48:41;;;;;;;84.05;23.13;;;;;;;-0.53;100.00;102820.63;5274996;28;20115;-71
2024/01/20 04:51:12;;;;;;;84.82;23.52;;;;;;;-0.47;100.00;102828.34;5273395;28;20019;-71
2024/01/20 04:53:42;;;;;;;73.35;21.38;;;;;;;-0.57;100.00;102833.03;5272545;28;20024;-71
2024/01/20 04:56:13;;;;;;;77.93;21.88;;;;;;;-0.75;100.00;102833.59;5270700;28;20043;-71
2024/01/20 04:58:43;;;;;;;84.03;21.55;;;;;;;-0.65;100.00;102832.41;5270535;28;20034;-70
2024/01/20 05:01:14;;;;;;;83.35;23.80;;;;;;;-0.63;100.00;102840.25;5273272;28;20127;-71
2024/01/20 05:03:45;;;;;;;81.85;22.35;;;;;;;-0.72;100.00;102845.81;5270779;28;20085;-71
2024/01/20 05:06:15;;;;;;;82.70;23.23;;;;;;;-0.68;100.00;102845.66;5272057;28;20118;-71
2024/01/20 05:08:46;;;;;;;82.88;25.25;;;;;;;-0.66;100.00;102849.09;5268733;28;20024;-71
2024/01/20 05:11:16;;;;;;;81.05;23.27;;;;;;;-0.73;100.00;102852.00;5270029;28;20149;-71
2024/01/20 05:13:47;;;;;;;93.35;26.27;;;;;;;-0.63;100.00;102842.91;5272338;28;20040;-70
2024/01/20 05:16:19;;;;;;;80.93;23.67;;;;;;;-0.68;100.00;102850.94;5271324;28;20099;-71
2024/01/20 05:18:49;;;;;;;79.68;22.60;;;;;;;-0.59;100.00;102849.81;5269829;28;20024;-71
2024/01/20 05:21:20;;;;;;;81.78;22.73;;;;;;;-0.64;100.00;102854.34;5271331;28;20467;-71
2024/01/20 05:23:50;;;;;;;80.15;23.63;;;;;;;-0.56;100.00;102852.34;5268603;28;20023;-71
2024/01/20 05:26:21;;;;;;;82.28;23.20;;;;;;;-0.45;100.00;102852.91;5268543;28;20020;-71
2024/01/20 05:28:51;;;;;;;63.72;22.02;;;;;;;-0.60;100.00;102850.72;5270143;28;20107;-71
2024/01/20 05:31:24;;;;;;;75.15;21.08;;;;;;;-0.53;100.00;102852.25;5268758;28;20511;-71
2024/01/20 05:33:54;;;;;;;79.60;23.00;;;;;;;-0.46;100.00;102861.69;5270878;28;20482;-71
2024/01/20 05:36:25;;;;;;;80.32;23.00;;;;;;;-0.39;100.00;102862.41;5269611;28;20050;-71
2024/01/20 05:38:55;;;;;;;78.82;22.27;;;;;;;-0.50;100.00;102861.84;5269103;28;20088;-71
2024/01/20 05:41:26;;;;;;;84.60;23.35;;;;;;;-0.55;100.00;102856.72;5269806;28;20028;-71
2024/01/20 05:43:57;;;;;;;81.28;22.95;;;;;;;-0.54;100.00;102855.81;5270526;28;20081;-71
2024/01/20 05:46:28;;;;;;;78.20;22.23;;;;;;;-0.48;100.00;102863.53;5268992;28;20024;-71
2024/01/20 05:48:58;;;;;;;73.78;22.17;;;;;;;-0.63;100.00;102871.91;5267314;28;20388;-71
2024/01/20 05:51:29;;;;;;;69.88;21.13;;;;;;;-0.68;100.00;102876.44;5269890;28;20047;-71
2024/01/20 05:53:59;;;;;;;71.28;23.55;;;;;;;-0.67;100.00;102876.38;5272385;28;20031;-71
2024/01/20 05:56:30;;;;;;;84.75;21.48;;;;;;;-0.68;100.00;102879.06;5254377;28;20054;-71
2024/01/20 05:59:00;;;;;;;71.13;21.23;;;;;;;-0.82;100.00;102876.81;5267777;28;20127;-71
2024/01/20 06:01:31;;;;;;;69.35;19.70;;;;;;;-0.72;100.00;102880.06;5266118;28;20066;-71
2024/01/20 06:04:03;;;;;;;67.05;20.60;;;;;;;-0.79;100.00;102879.38;5268978;28;20099;-71
2024/01/20 06:06:34;;;;;;;69.45;20.85;;;;;;;-0.73;100.00;102879.22;5267794;28;20386;-72
2024/01/20 06:09:04;;;;;;;67.95;21.55;;;;;;;-0.74;100.00;102876.63;5272243;28;20034;-71
2024/01/20 06:11:35;;;;;;;63.15;18.83;;;;;;;-0.92;100.00;102884.13;5270353;28;20051;-71
2024/01/20 06:14:05;;;;;;;69.38;20.65;;;;;;;-0.72;100.00;102882.69;5268135;28;20388;-71
2024/01/20 06:16:38;;;;;;;67.20;20.15;;;;;;;-0.76;100.00;102884.56;5267816;28;20381;-71
2024/01/20 06:19:09;;;;;;;66.40;19.13;;;;;;;-0.71;100.00;102885.28;5270225;28;20064;-71
2024/01/20 06:21:39;;;;;;;62.85;20.60;;;;;;;-0.62;100.00;102890.31;5267718;28;20052;-71
2024/01/20 06:24:11;;;;;;;63.47;19.92;;;;;;;-0.66;100.00;102899.19;5270579;28;20020;-71
2024/01/20 06:26:42;;;;;;;63.78;22.85;;;;;;;-0.70;100.00;102887.03;5268416;28;20028;-71
2024/01/20 06:29:12;;;;;;;62.17;19.02;;;;;;;-0.69;100.00;102899.31;5270972;28;20039;-71
2024/01/20 06:31:43;;;;;;;65.60;19.33;;;;;;;-0.64;100.00;102904.44;5274707;28;20587;-71
2024/01/20 06:34:13;;;;;;;64.00;19.95;;;;;;;-0.70;100.00;102907.22;5271587;28;20157;-71
2024/01/20 06:36:44;;;;;;;64.85;19.13;;;;;;;-0.83;100.00;102907.59;5273828;28;20393;-71
2024/01/20 06:39:14;;;;;;;63.22;19.98;;;;;;;-0.86;100.00;102909.44;5275688;28;20057;-71
2024/01/20 06:41:45;;;;;;;64.43;20.55;;;;;;;-0.83;100.00;102904.97;5272119;28;20039;-71
2024/01/20 06:44:16;;;;;;;66.90;21.23;;;;;;;-0.85;100.00;102912.06;5273715;28;20024;-71
2024/01/20 06:46:46;;;;;;;66.15;20.35;;;;;;;-0.81;100.00;102907.53;5273487;28;20082;-71
2024/01/20 06:49:17;;;;;;;63.03;19.27;;;;;;;-0.74;100.00;102914.38;5272916;28;20106;-71
2024/01/20 06:51:48;;;;;;;69.15;21.88;;;;;;;-0.82;100.00;102909.31;5273402;28;20028;-71
2024/01/20 06:54:18;;;;;;;67.43;21.40;;;;;;;-0.84;100.00;102915.53;5273343;28;21460;-71
2024/01/20 06:56:49;;;;;;;60.05;20.42;;;;;;;-0.75;100.00;102903.88;5273371;28;20031;-71
2024/01/20 06:59:19;;;;;;;65.55;22.33;;;;;;;-0.72;100.00;102902.00;5274646;28;20047;-71
2024/01/20 07:01:50;;;;;;;70.47;21.90;;;;;;;-0.67;100.00;102908.03;5263035;28;21505;-71
2024/01/20 07:04:20;;;;;;;72.15;21.45;;;;;;;-0.77;100.00;102911.81;5262861;28;20082;-71
2024/01/20 07:06:51;;;;;;;61.10;21.00;;;;;;;-0.67;100.00;102908.03;5271596;28;20060;-71
2024/01/20 07:09:21;;;;;;;76.10;23.40;;;;;;;-0.73;100.00;102907.34;5271822;28;20081;-71
2024/01/20 07:11:55;;;;;;;77.50;22.40;;;;;;;-0.82;100.00;102916.34;5271773;28;20023;-71
2024/01/20 07:14:25;;;;;;;76.05;23.85;;;;;;;-0.84;100.00;102918.19;5269290;28;20478;-71
2024/01/20 07:16:56;;;;;;;78.35;23.52;;;;;;;-0.75;100.00;102917.94;5270366;28;20020;-71
2024/01/20 07:19:27;;;;;;;73.20;23.05;;;;;;;-0.89;100.00;102909.53;5270900;28;20062;-71
2024/01/20 07:21:57;;;;;;;78.65;22.58;;;;;;;-0.77;100.00;102913.59;5272619;28;20039;-71
2024/01/20 07:24:29;;;;;;;83.65;24.27;;;;;;;-0.80;100.00;102915.44;5269717;27;20036;-71
2024/01/20 07:26:59;;;;;;;75.93;23.23;;;;;;;-0.82;100.00;102919.84;5270807;28;20385;-71
2024/01/20 07:29:30;;;;;;;83.63;24.35;;;;;;;-0.84;100.00;102937.50;5270264;28;20027;-71
2024/01/20 07:32:00;;;;;;;75.88;23.75;;;;;;;-1.00;100.00;102936.19;5270930;28;20066;-71
2024/01/20 07:34:31;;;;;;;74.45;23.48;;;;;;;-1.00;100.00;102928.28;5269485;28;20059;-71
2024/01/20 07:37:01;;;;;;;77.20;25.48;;;;;;;-0.94;100.00;102938.66;5272600;28;20011;-71
2024/01/20 07:39:32;;;;;;;68.88;22.60;;;;;;;-0.85;100.00;102929.63;5270234;28;20036;-71
2024/01/20 07:42:03;;;;;;;85.22;22.77;;;;;;;-0.97;100.00;102936.09;5271352;28;20024;-71
2024/01/20 07:44:33;;;;;;;70.60;23.35;;;;;;;-0.98;100.00;102941.41;5268439;28;20503;-71
2024/01/20 07:47:04;;;;;;;74.25;22.50;;;;;;;-0.92;100.00;102942.09;5270652;28;20016;-71
2024/01/20 07:49:34;;;;;;;73.90;23.05;;;;;;;-1.01;100.00;102941.47;5269573;28;20049;-71
2024/01/20 07:52:05;;;;;;;75.90;24.02;;;;;;;-0.87;100.00;102944.59;5270334;28;20031;-71
2024/01/20 07:54:35;;;;;;;74.57;21.13;;;;;;;-0.93;100.00;102953.56;5270095;28;20081;-71
2024/01/20 07:57:06;;;;;;;77.60;23.45;;;;;;;-0.77;100.00;102947.84;5270477;28;20043;-71
2024/01/20 07:59:36;;;;;;;76.70;23.33;;;;;;;-0.70;100.00;102952.03;5269530;28;20024;-71
2024/01/20 08:02:06;;;;;;;80.80;24.33;;;;;;;-0.74;100.00;102958.34;5271657;28;20031;-71
2024/01/20 08:04:37;;;;;;;70.20;24.83;;;;;;;-0.73;100.00;102960.06;5268703;28;20038;-71
2024/01/20 08:07:08;;;;;;;65.18;21.92;;;;;;;-0.72;100.00;102951.22;5271065;28;20107;-71
2024/01/20 08:09:39;;;;;;;61.72;20.58;;;;;;;-0.76;100.00;102955.72;5268893;28;20032;-71
2024/01/20 08:12:09;;;;;;;63.42;20.73;;;;;;;-0.68;100.00;102950.25;5270998;28;20076;-71
2024/01/20 08:14:40;;;;;;;68.07;21.35;;;;;;;-0.68;100.00;102964.28;5267501;28;20030;-71
2024/01/20 08:17:10;;;;;;;73.55;23.30;;;;;;;-0.62;100.00;102957.97;5270677;28;20024;-71
2024/01/20 08:19:41;;;;;;;81.60;24.70;;;;;;;-0.67;100.00;102960.75;5267629;28;20039;-71
2024/01/20 08:22:12;;;;;;;67.40;23.30;;;;;;;-0.63;100.00;102957.13;5270964;28;20103;-71
2024/01/20 08:24:43;;;;;;;62.28;21.13;;;;;;;-0.63;100.00;102954.47;5268101;28;20024;-71
2024/01/20 08:27:13;;;;;;;62.83;21.40;;;;;;;-0.50;100.00;102962.94;5270918;28;20132;-71
2024/01/20 08:29:44;;;;;;;64.63;19.23;;;;;;;-0.58;100.00;102964.91;5265123;28;20024;-71
2024/01/20 08:32:14;;;;;;;57.03;19.33;;;;;;;-0.59;100.00;102964.03;5270234;28;20037;-71
2024/01/20 08:34:45;;;;;;;62.15;20.35;;;;;;;-0.56;100.00;102968.34;5266478;28;20028;-71
2024/01/20 08:37:15;;;;;;;61.95;19.65;;;;;;;-0.45;100.00;102970.69;5270071;27;20047;-71
2024/01/20 08:39:46;;;;;;;57.28;18.17;;;;;;;-0.64;100.00;102976.50;5268168;28;20036;-73
2024/01/20 08:42:16;;;;;;;61.47;19.58;;;;;;;-0.55;100.00;102972.75;5270251;28;20025;-71
2024/01/20 08:44:47;;;;;;;54.08;17.45;;;;;;;-0.69;100.00;102988.06;5267798;28;20028;-71
2024/01/20 08:47:17;;;;;;;51.97;17.00;;;;;;;-0.75;100.00;102977.66;5269101;28;20275;-71
2024/01/20 08:49:51;;;;;;;53.72;16.70;;;;;;;-0.77;100.00;102990.03;5268153;28;20024;-71
2024/01/20 08:52:22;;;;;;;53.22;17.63;;;;;;;-0.69;100.00;102988.94;5268502;28;20026;-71
2024/01/20 08:54:52;;;;;;;57.33;20.65;;;;;;;-0.58;100.00;102991.28;5268300;28;20401;-71
2024/01/20 08:57:23;;;;;;;55.53;18.98;;;;;;;-0.47;100.00;102991.81;5268555;28;20035;-71
2024/01/20 08:59:53;;;;;;;44.42;16.75;;;;;;;-0.43;100.00;102984.72;5268678;28;20030;-71
2024/01/20 09:02:23;;;;;;;51.92;17.10;;;;;;;-0.49;100.00;102996.28;5268802;28;20027;-71
2024/01/20 09:04:54;;;;;;;51.33;15.80;;;;;;;-0.65;100.00;102984.44;5268777;28;20149;-71
2024/01/20 09:07:25;;;;;;;47.90;17.27;;;;;;;-0.81;100.00;102979.56;5268010;28;20106;-71
2024/01/20 09:09:56;;;;;;;61.88;17.10;;;;;;;-0.83;100.00;102988.44;5268330;28;20016;-71
2024/01/20 09:12:27;;;;;;;49.15;16.20;;;;;;;-0.86;100.00;102989.34;5267729;28;20035;-71
2024/01/20 09:14:57;;;;;;;48.95;16.08;;;;;;;-0.73;100.00;102983.78;5268487;28;20107;-71
2024/01/20 09:17:28;;;;;;;46.90;16.42;;;;;;;-0.76;100.00;102986.47;5267293;28;20031;-71
2024/01/20 09:19:58;;;;;;;43.65;16.20;;;;;;;-0.66;100.00;102991.47;5268595;28;20031;-71
2024/01/20 09:22:28;;;;;;;50.67;17.23;;;;;;;-0.63;100.00;102982.63;5267122;28;20560;-71
2024/01/20 09:25:01;;;;;;;56.35;18.38;;;;;;;-0.48;100.00;102989.25;5266216;28;20472;-71
2024/01/20 09:27:31;;;;;;;50.78;17.00;;;;;;;-0.53;100.00;102984.97;5265164;28;20020;-71
2024/01/20 09:30:03;;;;;;;51.35;17.35;;;;;;;-0.36;100.00;102987.09;5266712;28;20024;-71
2024/01/20 09:32:33;;;;;;;54.13;17.10;;;;;;;-0.32;100.00;102987.91;5267558;28;20028;-71
2024/01/20 09:35:04;;;;;;;51.13;16.45;;;;;;;-0.20;100.00;102997.22;5267343;28;20037;-71
2024/01/20 09:37:36;;;;;;;48.03;15.45;;;;;;;-0.35;100.00;102999.41;5266776;28;20042;-71
2024/01/20 09:40:08;;;;;;;46.47;16.00;;;;;;;-0.35;100.00;102998.53;5266046;28;20415;-72
2024/01/20 09:42:40;;;;;;;42.63;15.73;;;;;;;-0.56;100.00;102992.06;5266828;28;20068;-71
2024/01/20 09:45:11;;;;;;;46.40;15.45;;;;;;;-0.37;100.00;103001.22;5263909;28;20020;-71
2024/01/20 09:47:42;;;;;;;48.03;15.65;;;;;;;-0.26;100.00;103000.91;5264354;28;20031;-71
2024/01/20 09:50:12;;;;;;;39.58;15.10;;;;;;;-0.42;100.00;102997.84;5266148;28;20127;-71
2024/01/20 09:52:58;;;;;;;42.15;14.07;;;;;;;-0.50;100.00;103005.13;5265122;28;20111;-71
2024/01/20 09:55:28;;;;;;;37.85;13.52;;;;;;;-0.49;100.00;103011.25;5264244;28;20024;-71
2024/01/20 09:58:00;;;;;;;50.28;15.00;;;;;;;-0.31;100.00;103005.44;5262721;28;20046;-71
2024/01/20 10:00:32;;;;;;;42.17;15.23;;;;;;;-0.60;100.00;103009.78;5266375;28;20027;-71
2024/01/20 10:03:05;;;;;;;41.20;15.52;;;;;;;-0.59;100.00;103015.91;5267966;28;20024;-71
2024/01/20 10:05:37;;;;;;;43.40;15.57;;;;;;;-0.55;100.00;103014.94;5261582;28;20051;-71
2024/01/20 10:08:07;;;;;;;43.67;14.38;;;;;;;-0.60;100.00;103020.31;5266010;28;20535;-71
2024/01/20 10:10:38;;;;;;;43.78;14.05;;;;;;;-0.90;100.00;103014.09;5264360;28;20024;-71
2024/01/20 10:13:08;;;;;;;41.78;14.20;;;;;;;-0.95;100.00;103013.34;5263164;28;20020;-71
2024/01/20 10:15:39;;;;;;;47.10;14.85;;;;;;;-1.10;100.00;103016.38;5265918;28;20046;-71
2024/01/20 10:18:11;;;;;;;48.78;15.25;;;;;;;-1.27;100.00;103010.63;5264108;28;20024;-71
2024/01/20 10:20:41;;;;;;;47.85;15.15;;;;;;;-1.26;100.00;103002.69;5264464;28;20027;-71
2024/01/20 10:23:11;;;;;;;43.85;14.88;;;;;;;-1.26;100.00;103012.34;5265922;28;20035;-71
2024/01/20 10:25:42;;;;;;;40.00;14.85;;;;;;;-1.26;100.00;102997.41;5263987;28;20114;-71
2024/01/20 10:28:13;;;;;;;49.03;15.15;;;;;;;-1.09;100.00;102992.59;5262689;28;20020;-71
2024/01/20 10:30:44;;;;;;;43.10;14.13;;;;;;;-0.85;100.00;102999.03;5264585;28;20031;-71
2024/01/20 10:33:14;;;;;;;42.50;14.32;;;;;;;-0.89;100.00;102997.38;5265724;28;20096;-71
2024/01/20 10:35:45;;;;;;;37.97;14.70;;;;;;;-0.87;100.00;103005.22;5265609;28;20486;-71
2024/01/20 10:38:19;;;;;;;38.88;14.27;;;;;;;-0.97;100.00;103001.94;5266107;27;20032;-71
2024/01/20 10:40:52;;;;;;;47.07;16.50;;;;;;;-0.71;100.00;103000.41;5262983;28;20032;-71
2024/01/20 10:43:27;;;;;;;46.13;15.20;;;;;;;-0.80;100.00;103002.41;5266249;28;20043;-71
2024/01/20 10:46:12;;;;;;;;;;;;;;;-0.88;100.00;103000.88;5266838;28;20062;-71
2024/01/20 10:48:48;;;;;;;38.10;13.18;;;;;;;-0.89;100.00;103000.00;5259918;28;20557;-71
2024/01/20 10:51:25;;;;;;;37.63;13.25;;;;;;;-0.82;100.00;102998.06;5261235;28;20104;-71
2024/01/20 10:53:56;;;;;;;40.33;14.07;;;;;;;-0.73;100.00;102997.81;5263226;28;20016;-71
2024/01/20 10:56:29;;;;;;;38.90;14.75;;;;;;;-0.86;100.00;102997.25;5262830;28;20554;-71
2024/01/20 10:59:12;;;;;;;41.25;15.35;;;;;;;-0.85;100.00;102998.16;5263179;28;20416;-71
2024/01/20 11:01:43;;;;;;;46.00;15.13;;;;;;;-0.98;100.00;102987.06;5263577;28;20024;-71
2024/01/20 11:04:20;;;;;;;40.58;14.02;;;;;;;-0.75;100.00;102994.38;5263391;28;20023;-71
2024/01/20 11:06:51;;;;;;;36.80;13.88;;;;;;;-0.66;100.00;102987.97;5262394;28;20063;-73
2024/01/20 11:09:21;;;;;;;38.90;13.40;;;;;;;-0.59;100.00;102974.59;5263669;28;20020;-73
2024/01/20 11:12:00;;;;;;;34.90;13.57;;;;;;;-0.10;100.00;102980.22;5263077;28;20035;-71
2024/01/20 11:14:32;;;;;;;35.55;13.00;;;;;;;0.12;100.00;102970.75;5260912;28;20023;-71
2024/01/20 11:17:14;;;;;;;25.63;12.10;;;;;;;0.25;100.00;102963.31;5265677;28;20107;-71
2024/01/20 11:19:44;;;;;;;32.10;12.68;;;;;;;0.28;100.00;102962.34;5267085;28;20028;-71